createdAt,value
2022-11-24T00:00:07.133Z,94.58
2022-11-24T00:01:07.306Z,94.17
2022-11-24T00:02:07.187Z,95.25
2022-11-24T00:03:07.206Z,95.77
2022-11-24T00:04:07.084Z,96.48
2022-11-24T00:05:07.086Z,95.36
2022-11-24T00:06:07.054Z,96.39
2022-11-24T00:07:07.144Z,95.81
2022-11-24T00:08:07.051Z,96.02
2022-11-24T00:09:07.024Z,96.59
2022-11-24T00:10:07.005Z,96.73
2022-11-24T00:11:07.021Z,95.86
2022-11-24T00:12:06.977Z,95.96
2022-11-24T00:13:07.030Z,95.03
2022-11-24T00:14:06.992Z,95.30
2022-11-24T00:15:07.020Z,94.52
2022-11-24T00:16:06.938Z,95.30
2022-11-24T00:17:06.988Z,93.90
2022-11-24T00:18:06.928Z,94.89
2022-11-24T00:19:06.938Z,94.89
2022-11-24T00:20:06.901Z,95.40
2022-11-24T00:21:06.878Z,94.99
2022-11-24T00:22:06.883Z,95.40
2022-11-24T00:23:06.877Z,94.48
2022-11-24T00:24:06.858Z,93.55
2022-11-24T00:25:06.869Z,93.90
2022-11-24T00:26:06.881Z,93.04
2022-11-24T00:27:06.825Z,92.21
2022-11-24T00:28:06.887Z,92.73
2022-11-24T00:29:06.794Z,93.14
2022-11-24T00:30:06.795Z,92.73
2022-11-24T00:31:06.931Z,92.01
2022-11-24T00:32:06.770Z,93.30
2022-11-24T00:33:06.771Z,92.27
2022-11-24T00:34:06.735Z,93.40
2022-11-24T00:35:06.725Z,92.89
2022-11-24T00:36:06.739Z,92.99
2022-11-24T00:37:06.720Z,92.79
2022-11-24T00:38:06.680Z,91.25
2022-11-24T00:39:06.670Z,92.99
2022-11-24T00:40:06.663Z,92.27
2022-11-24T00:41:06.648Z,91.55
2022-11-24T00:42:06.646Z,90.67
2022-11-24T00:43:06.640Z,91.45
2022-11-24T00:44:06.626Z,90.47
2022-11-24T00:45:13.441Z,90.67
2022-11-24T00:46:07.725Z,91.45
2022-11-24T00:47:06.624Z,90.73
2022-11-24T00:48:06.596Z,91.86
2022-11-24T00:49:06.560Z,91.55
2022-11-24T00:50:06.561Z,90.78
2022-11-24T00:51:06.553Z,90.16
2022-11-24T00:52:06.528Z,89.85
2022-11-24T00:53:06.531Z,90.32
2022-11-24T00:54:06.527Z,91.14
2022-11-24T00:55:06.487Z,90.73
2022-11-24T00:56:06.490Z,91.49
2022-11-24T00:57:06.493Z,89.23
2022-11-24T00:58:06.474Z,89.34
2022-11-24T00:59:06.521Z,89.75
2022-11-24T01:00:06.442Z,90.73
2022-11-24T01:01:06.454Z,91.14
2022-11-24T01:02:06.445Z,90.32
2022-11-24T01:03:06.413Z,91.25
2022-11-24T01:04:06.383Z,90.36
2022-11-24T01:05:06.437Z,91.55
2022-11-24T01:06:06.413Z,90.22
2022-11-24T01:07:06.398Z,90.78
2022-11-24T01:08:06.353Z,92.27
2022-11-24T01:09:06.323Z,91.04
2022-11-24T01:10:06.312Z,93.61
2022-11-24T01:11:06.312Z,93.04
2022-11-24T01:12:06.336Z,91.70
2022-11-24T01:13:06.294Z,91.60
2022-11-24T01:14:06.316Z,90.16
2022-11-24T01:15:06.264Z,92.93
2022-11-24T01:16:06.301Z,90.88
2022-11-24T01:17:06.246Z,90.06
2022-11-24T01:18:06.243Z,91.08
2022-11-24T01:19:06.219Z,92.52
2022-11-24T01:20:06.213Z,91.29
2022-11-24T01:21:10.016Z,92.01
2022-11-24T01:22:06.223Z,91.19
2022-11-24T01:23:06.234Z,92.11
2022-11-24T01:24:06.209Z,90.16
2022-11-24T01:25:06.147Z,91.60
2022-11-24T01:26:06.133Z,89.75
2022-11-24T01:27:06.134Z,90.26
2022-11-24T01:28:06.105Z,90.98
2022-11-24T01:29:06.136Z,91.60
2022-11-24T01:30:06.101Z,92.01
2022-11-24T01:31:06.207Z,90.26
2022-11-24T01:32:06.065Z,90.57
2022-11-24T01:33:06.140Z,90.47
2022-11-24T01:34:06.047Z,90.06
2022-11-24T01:35:06.082Z,91.39
2022-11-24T01:36:06.021Z,90.20
2022-11-24T01:37:06.026Z,89.79
2022-11-24T01:38:06.014Z,89.79
2022-11-24T01:39:05.986Z,90.36
2022-11-24T01:40:06.007Z,89.79
2022-11-24T01:41:05.990Z,89.13
2022-11-24T01:42:05.994Z,91.08
2022-11-24T01:43:05.932Z,88.56
2022-11-24T01:44:05.967Z,91.39
2022-11-24T01:45:05.914Z,91.76
2022-11-24T01:46:05.937Z,92.32
2022-11-24T01:47:05.957Z,92.63
2022-11-24T01:48:05.906Z,92.83
2022-11-24T01:49:05.876Z,92.83
2022-11-24T01:50:05.874Z,92.32
2022-11-24T01:51:05.876Z,91.80
2022-11-24T01:52:05.856Z,91.39
2022-11-24T01:53:05.855Z,92.93
2022-11-24T01:54:05.807Z,92.83
2022-11-24T01:55:05.797Z,91.70
2022-11-24T01:56:05.791Z,90.98
2022-11-24T01:57:05.799Z,92.11
2022-11-24T01:58:05.805Z,94.17
2022-11-24T01:59:05.755Z,94.17
2022-11-24T02:00:05.758Z,93.04
2022-11-24T02:01:05.751Z,93.44
2022-11-24T02:02:05.774Z,93.44
2022-11-24T02:03:05.737Z,92.63
2022-11-24T02:04:05.708Z,94.23
2022-11-24T02:05:05.690Z,94.64
2022-11-24T02:06:05.667Z,95.31
2022-11-24T02:07:05.671Z,94.74
2022-11-24T02:08:05.680Z,94.54
2022-11-24T02:09:05.671Z,94.74
2022-11-24T02:10:05.619Z,94.84
2022-11-24T02:11:05.628Z,95.15
2022-11-24T02:12:05.599Z,94.84
2022-11-24T02:13:05.599Z,93.40
2022-11-24T02:14:05.589Z,93.40
2022-11-24T02:15:05.617Z,94.12
2022-11-24T02:16:05.660Z,93.40
2022-11-24T02:17:05.550Z,93.51
2022-11-24T02:18:05.601Z,93.40
2022-11-24T02:19:05.539Z,92.38
2022-11-24T02:20:05.559Z,91.55
2022-11-24T02:21:05.511Z,92.54
2022-11-24T02:22:05.491Z,92.95
2022-11-24T02:23:05.502Z,92.95
2022-11-24T02:24:05.468Z,92.38
2022-11-24T02:25:05.491Z,91.10
2022-11-24T02:26:05.481Z,93.16
2022-11-24T02:27:05.482Z,93.01
2022-11-24T02:28:05.424Z,93.05
2022-11-24T02:29:05.401Z,93.46
2022-11-24T02:30:05.411Z,91.20
2022-11-24T02:31:05.458Z,91.00
2022-11-24T02:32:05.459Z,92.23
2022-11-24T02:33:05.361Z,92.60
2022-11-24T02:34:05.344Z,93.73
2022-11-24T02:35:05.355Z,93.42
2022-11-24T02:36:05.341Z,93.42
2022-11-24T02:37:05.321Z,94.45
2022-11-24T02:38:05.344Z,94.71
2022-11-24T02:39:05.281Z,95.06
2022-11-24T02:40:05.276Z,94.04
2022-11-24T02:41:05.306Z,94.04
2022-11-24T02:42:05.252Z,94.14
2022-11-24T02:43:05.241Z,94.14
2022-11-24T02:44:05.268Z,95.47
2022-11-24T02:45:05.222Z,94.34
2022-11-24T02:46:05.318Z,94.24
2022-11-24T02:47:05.192Z,93.73
2022-11-24T02:48:05.221Z,93.21
2022-11-24T02:49:05.173Z,93.01
2022-11-24T02:50:05.221Z,93.42
2022-11-24T02:51:05.173Z,93.63
2022-11-24T02:52:05.143Z,93.73
2022-11-24T02:53:05.124Z,93.63
2022-11-24T02:54:05.113Z,93.21
2022-11-24T02:55:05.122Z,93.32
2022-11-24T02:56:05.113Z,94.34
2022-11-24T02:57:05.086Z,93.73
2022-11-24T02:58:05.075Z,92.91
2022-11-24T02:59:05.068Z,93.89
2022-11-24T03:00:05.071Z,94.81
2022-11-24T03:01:05.085Z,93.89
2022-11-24T03:02:05.107Z,93.59
2022-11-24T03:03:05.051Z,93.89
2022-11-24T03:04:04.997Z,93.59
2022-11-24T03:05:04.990Z,94.40
2022-11-24T03:06:04.994Z,93.38
2022-11-24T03:07:04.967Z,93.54
2022-11-24T03:08:05.027Z,93.44
2022-11-24T03:09:04.948Z,95.07
2022-11-24T03:10:04.934Z,94.36
2022-11-24T03:11:04.926Z,94.05
2022-11-24T03:12:04.921Z,94.36
2022-11-24T03:13:04.908Z,94.26
2022-11-24T03:14:04.988Z,94.98
2022-11-24T03:15:04.866Z,95.39
2022-11-24T03:16:04.882Z,95.12
2022-11-24T03:17:04.911Z,94.36
2022-11-24T03:18:04.845Z,94.46
2022-11-24T03:19:04.830Z,95.18
2022-11-24T03:20:05.496Z,96.00
2022-11-24T03:21:04.811Z,96.62
2022-11-24T03:22:04.812Z,96.31
2022-11-24T03:23:04.790Z,96.41
2022-11-24T03:24:04.771Z,95.69
2022-11-24T03:25:04.758Z,95.32
2022-11-24T03:26:04.838Z,94.81
2022-11-24T03:27:04.732Z,95.43
2022-11-24T03:28:04.730Z,93.73
2022-11-24T03:29:04.730Z,92.60
2022-11-24T03:30:04.707Z,92.91
2022-11-24T03:31:04.771Z,93.07
2022-11-24T03:32:04.679Z,93.27
2022-11-24T03:33:04.666Z,93.89
2022-11-24T03:34:04.674Z,93.59
2022-11-24T03:35:04.638Z,93.63
2022-11-24T03:36:04.627Z,94.45
2022-11-24T03:37:04.668Z,93.12
2022-11-24T03:38:04.620Z,94.45
2022-11-24T03:39:04.611Z,92.44
2022-11-24T03:40:04.662Z,92.64
2022-11-24T03:41:04.579Z,90.94
2022-11-24T03:42:04.551Z,90.42
2022-11-24T03:43:04.609Z,90.38
2022-11-24T03:44:04.554Z,91.25
2022-11-24T03:45:23.064Z,91.31
2022-11-24T03:46:05.548Z,92.95
2022-11-24T03:47:04.515Z,92.95
2022-11-24T03:48:04.484Z,92.27
2022-11-24T03:49:04.510Z,90.94
2022-11-24T03:50:04.461Z,91.31
2022-11-24T03:51:04.483Z,91.04
2022-11-24T03:52:07.977Z,90.01
2022-11-24T03:53:04.464Z,92.23
2022-11-24T03:54:04.559Z,91.97
2022-11-24T03:55:04.437Z,91.20
2022-11-24T03:56:04.421Z,92.64
2022-11-24T03:57:04.406Z,93.77
2022-11-24T03:58:04.402Z,92.74
2022-11-24T03:59:04.361Z,94.80
2022-11-24T04:00:04.378Z,93.87
2022-11-24T04:01:04.347Z,93.87
2022-11-24T04:02:04.399Z,94.90
2022-11-24T04:03:04.373Z,95.21
2022-11-24T04:04:04.304Z,94.59
2022-11-24T04:05:04.296Z,95.01
2022-11-24T04:06:04.286Z,93.30
2022-11-24T04:07:04.273Z,92.38
2022-11-24T04:08:04.307Z,93.51
2022-11-24T04:09:04.244Z,90.67
2022-11-24T04:10:04.249Z,91.70
2022-11-24T04:11:04.214Z,91.29
2022-11-24T04:12:04.216Z,91.60
2022-11-24T04:13:04.198Z,91.60
2022-11-24T04:14:06.713Z,91.14
2022-11-24T04:15:05.200Z,91.14
2022-11-24T04:16:04.192Z,91.76
2022-11-24T04:17:04.184Z,92.99
2022-11-24T04:18:04.146Z,90.94
2022-11-24T04:19:04.129Z,91.04
2022-11-24T04:20:04.143Z,90.63
2022-11-24T04:21:04.128Z,90.32
2022-11-24T04:22:04.107Z,91.72
2022-11-24T04:23:04.084Z,91.86
2022-11-24T04:24:04.076Z,90.94
2022-11-24T04:25:04.075Z,91.51
2022-11-24T04:26:04.093Z,91.51
2022-11-24T04:27:04.039Z,91.31
2022-11-24T04:28:04.026Z,91.41
2022-11-24T04:29:04.010Z,93.36
2022-11-24T04:30:04.094Z,91.61
2022-11-24T04:31:04.068Z,93.26
2022-11-24T04:32:04.019Z,92.44
2022-11-24T04:33:03.966Z,92.29
2022-11-24T04:34:03.959Z,92.91
2022-11-24T04:35:03.958Z,93.67
2022-11-24T04:36:03.930Z,92.03
2022-11-24T04:37:03.957Z,91.93
2022-11-24T04:38:03.921Z,93.16
2022-11-24T04:39:22.906Z,93.05
2022-11-24T04:40:04.886Z,91.04
2022-11-24T04:41:03.890Z,92.27
2022-11-24T04:42:03.877Z,92.95
2022-11-24T04:43:03.874Z,93.40
2022-11-24T04:44:03.837Z,92.13
2022-11-24T04:45:03.825Z,92.23
2022-11-24T04:46:03.897Z,92.89
2022-11-24T04:47:03.819Z,92.27
2022-11-24T04:48:03.788Z,92.99
2022-11-24T04:49:03.829Z,92.74
2022-11-24T04:50:03.780Z,92.79
2022-11-24T04:51:03.749Z,93.40
2022-11-24T04:52:03.757Z,92.69
2022-11-24T04:53:03.732Z,91.55
2022-11-24T04:54:03.728Z,93.40
2022-11-24T04:55:03.776Z,91.86
2022-11-24T04:56:03.711Z,91.86
2022-11-24T04:57:03.691Z,92.69
2022-11-24T04:58:03.715Z,93.20
2022-11-24T04:59:08.013Z,90.63
2022-11-24T05:00:03.686Z,93.05
2022-11-24T05:01:03.669Z,93.05
2022-11-24T05:02:03.701Z,94.70
2022-11-24T05:03:03.658Z,93.20
2022-11-24T05:04:03.669Z,92.95
2022-11-24T05:05:03.629Z,93.16
2022-11-24T05:06:03.626Z,93.36
2022-11-24T05:07:03.611Z,92.85
2022-11-24T05:08:03.643Z,93.05
2022-11-24T05:09:03.625Z,93.36
2022-11-24T05:10:03.555Z,92.64
2022-11-24T05:11:03.562Z,92.33
2022-11-24T05:12:03.521Z,93.57
2022-11-24T05:13:03.865Z,90.28
2022-11-24T05:14:03.545Z,92.33
2022-11-24T05:15:03.502Z,91.88
2022-11-24T05:16:03.557Z,92.23
2022-11-24T05:17:03.758Z,92.44
2022-11-24T05:18:03.502Z,91.93
2022-11-24T05:19:03.503Z,91.82
2022-11-24T05:20:03.431Z,92.19
2022-11-24T05:21:03.441Z,93.17
2022-11-24T05:22:03.432Z,94.71
2022-11-24T05:23:03.461Z,93.01
2022-11-24T05:24:03.395Z,93.59
2022-11-24T05:25:03.364Z,94.71
2022-11-24T05:26:03.355Z,94.10
2022-11-24T05:27:03.368Z,92.97
2022-11-24T05:28:03.332Z,94.61
2022-11-24T05:29:03.337Z,93.68
2022-11-24T05:30:03.413Z,92.86
2022-11-24T05:31:03.368Z,93.74
2022-11-24T05:32:03.274Z,94.36
2022-11-24T05:33:03.273Z,93.95
2022-11-24T05:34:03.294Z,93.85
2022-11-24T05:35:03.305Z,94.15
2022-11-24T05:36:03.245Z,94.36
2022-11-24T05:37:03.231Z,94.98
2022-11-24T05:38:03.213Z,95.07
2022-11-24T05:39:03.228Z,94.26
2022-11-24T05:40:03.192Z,93.95
2022-11-24T05:41:03.206Z,94.42
2022-11-24T05:42:03.183Z,94.83
2022-11-24T05:43:03.162Z,94.46
2022-11-24T05:44:03.147Z,95.24
2022-11-24T05:45:03.190Z,94.36
2022-11-24T05:46:03.116Z,95.24
2022-11-24T05:47:03.208Z,95.54
2022-11-24T05:48:03.101Z,94.62
2022-11-24T05:49:03.100Z,94.62
2022-11-24T05:50:03.096Z,95.61
2022-11-24T05:51:07.849Z,95.61
2022-11-24T05:52:04.085Z,94.68
2022-11-24T05:53:03.036Z,94.83
2022-11-24T05:54:03.056Z,94.52
2022-11-24T05:55:03.036Z,95.09
2022-11-24T05:56:03.014Z,96.12
2022-11-24T05:57:02.996Z,96.42
2022-11-24T05:58:03.014Z,94.78
2022-11-24T05:59:08.145Z,94.42
2022-11-24T06:00:03.968Z,96.01
2022-11-24T06:01:02.982Z,95.81
2022-11-24T06:02:03.109Z,93.90
2022-11-24T06:03:03.039Z,94.58
2022-11-24T06:04:02.964Z,95.76
2022-11-24T06:05:02.896Z,94.95
2022-11-24T06:06:02.917Z,95.76
2022-11-24T06:07:02.896Z,96.58
2022-11-24T06:08:02.867Z,94.89
2022-11-24T06:09:02.857Z,95.15
2022-11-24T06:10:02.897Z,95.97
2022-11-24T06:11:02.831Z,94.43
2022-11-24T06:12:02.843Z,95.36
2022-11-24T06:13:02.951Z,95.15
2022-11-24T06:14:05.788Z,95.56
2022-11-24T06:15:03.797Z,93.82
2022-11-24T06:16:02.837Z,94.43
2022-11-24T06:17:02.767Z,95.05
2022-11-24T06:18:02.762Z,94.02
2022-11-24T06:19:03.007Z,94.74
2022-11-24T06:20:02.747Z,95.10
2022-11-24T06:21:10.696Z,95.92
2022-11-24T06:22:03.711Z,95.56
2022-11-24T06:23:02.709Z,93.51
2022-11-24T06:24:02.678Z,94.64
2022-11-24T06:25:02.698Z,95.10
2022-11-24T06:26:02.662Z,95.31
2022-11-24T06:27:02.679Z,95.10
2022-11-24T06:28:02.639Z,96.03
2022-11-24T06:29:02.641Z,96.59
2022-11-24T06:30:02.619Z,96.49
2022-11-24T06:31:02.627Z,96.19
2022-11-24T06:32:02.641Z,96.49
2022-11-24T06:33:02.609Z,96.49
2022-11-24T06:34:02.571Z,96.91
2022-11-24T06:35:02.568Z,97.21
2022-11-24T06:36:02.554Z,96.59
2022-11-24T06:37:02.531Z,97.62
2022-11-24T06:38:02.530Z,96.80
2022-11-24T06:39:02.547Z,96.74
2022-11-24T06:40:02.509Z,96.33
2022-11-24T06:41:02.500Z,95.00
2022-11-24T06:42:02.539Z,95.72
2022-11-24T06:43:02.462Z,95.25
2022-11-24T06:44:02.453Z,95.72
2022-11-24T06:45:07.382Z,95.51
2022-11-24T06:46:03.511Z,95.10
2022-11-24T06:47:02.460Z,95.82
2022-11-24T06:48:02.430Z,94.70
2022-11-24T06:49:02.411Z,96.13
2022-11-24T06:50:02.430Z,96.08
2022-11-24T06:51:02.392Z,95.51
2022-11-24T06:52:02.373Z,95.82
2022-11-24T06:53:02.375Z,95.15
2022-11-24T06:54:02.353Z,93.92
2022-11-24T06:55:02.362Z,93.41
2022-11-24T06:56:02.310Z,93.98
2022-11-24T06:57:02.323Z,94.23
2022-11-24T06:58:02.294Z,94.02
2022-11-24T06:59:02.302Z,95.21
2022-11-24T07:00:02.278Z,95.10
2022-11-24T07:01:02.333Z,94.95
2022-11-24T07:02:02.242Z,94.54
2022-11-24T07:03:02.333Z,94.02
2022-11-24T07:04:02.235Z,94.54
2022-11-24T07:05:02.328Z,92.18
2022-11-24T07:06:02.197Z,93.41
2022-11-24T07:07:02.187Z,94.02
2022-11-24T07:08:02.190Z,92.12
2022-11-24T07:09:02.192Z,93.35
2022-11-24T07:10:02.155Z,92.02
2022-11-24T07:11:02.165Z,93.71
2022-11-24T07:12:02.136Z,93.67
2022-11-24T07:13:02.151Z,95.62
2022-11-24T07:14:02.125Z,92.79
2022-11-24T07:15:02.157Z,94.39
2022-11-24T07:16:02.152Z,94.12
2022-11-24T07:17:02.076Z,92.59
2022-11-24T07:18:02.100Z,93.57
2022-11-24T07:19:02.064Z,93.57
2022-11-24T07:20:02.036Z,93.77
2022-11-24T07:21:02.082Z,93.82
2022-11-24T07:22:02.026Z,93.37
2022-11-24T07:23:02.007Z,94.75
2022-11-24T07:24:02.002Z,95.47
2022-11-24T07:25:01.986Z,95.67
2022-11-24T07:26:06.571Z,95.88
2022-11-24T07:27:03.053Z,95.26
2022-11-24T07:28:01.952Z,95.26
2022-11-24T07:29:01.949Z,96.08
2022-11-24T07:30:01.928Z,95.06
2022-11-24T07:31:01.936Z,95.47
2022-11-24T07:32:05.470Z,96.45
2022-11-24T07:33:01.924Z,95.88
2022-11-24T07:34:01.888Z,95.53
2022-11-24T07:35:01.881Z,95.63
2022-11-24T07:36:01.881Z,95.84
2022-11-24T07:37:01.858Z,94.92
2022-11-24T07:38:01.839Z,96.25
2022-11-24T07:39:01.850Z,94.24
2022-11-24T07:40:01.843Z,94.45
2022-11-24T07:41:01.799Z,93.98
2022-11-24T07:42:01.854Z,93.67
2022-11-24T07:43:01.799Z,92.75
2022-11-24T07:44:02.315Z,91.01
2022-11-24T07:45:02.187Z,89.68
2022-11-24T07:46:02.018Z,90.70
2022-11-24T07:47:01.980Z,91.48
2022-11-24T07:48:01.937Z,91.63
2022-11-24T07:49:01.740Z,91.11
2022-11-24T07:50:02.040Z,91.01
2022-11-24T07:51:01.741Z,91.69
2022-11-24T07:52:01.862Z,92.97
2022-11-24T07:53:01.795Z,93.43
2022-11-24T07:54:01.706Z,93.01
2022-11-24T07:55:01.761Z,91.69
2022-11-24T07:56:01.867Z,92.71
2022-11-24T07:57:01.656Z,92.14
2022-11-24T07:58:01.601Z,90.50
2022-11-24T07:59:01.595Z,92.50
2022-11-24T08:00:01.592Z,90.97
2022-11-24T08:01:01.574Z,92.44
2022-11-24T08:02:01.678Z,91.58
2022-11-24T08:03:01.599Z,93.18
2022-11-24T08:04:01.707Z,93.79
2022-11-24T08:05:01.578Z,93.89
2022-11-24T08:06:23.616Z,94.60
2022-11-24T08:07:02.527Z,92.66
2022-11-24T08:08:01.513Z,92.56
2022-11-24T08:09:01.487Z,93.59
2022-11-24T08:10:01.477Z,93.13
2022-11-24T08:11:01.466Z,94.06
2022-11-24T08:12:01.442Z,94.97
2022-11-24T08:13:01.432Z,93.01
2022-11-24T08:14:01.484Z,94.30
2022-11-24T08:15:03.310Z,92.25
2022-11-24T08:16:01.438Z,92.15
2022-11-24T08:17:01.463Z,91.99
2022-11-24T08:18:01.376Z,91.17
2022-11-24T08:19:01.420Z,91.03
2022-11-24T08:20:01.366Z,92.83
2022-11-24T08:21:01.355Z,94.15
2022-11-24T08:22:01.328Z,93.18
2022-11-24T08:23:01.315Z,93.85
2022-11-24T08:24:01.332Z,92.93
2022-11-24T08:25:01.382Z,94.36
2022-11-24T08:26:01.278Z,93.38
2022-11-24T08:27:01.268Z,93.38
2022-11-24T08:28:01.255Z,91.74
2022-11-24T08:29:01.275Z,90.66
2022-11-24T08:30:01.254Z,91.85
2022-11-24T08:31:01.319Z,92.05
2022-11-24T08:32:01.243Z,91.64
2022-11-24T08:33:01.209Z,92.56
2022-11-24T08:34:01.207Z,92.46
2022-11-24T08:35:13.454Z,93.18
2022-11-24T08:36:02.719Z,91.13
2022-11-24T08:37:01.165Z,91.78
2022-11-24T08:38:04.674Z,90.66
2022-11-24T08:39:01.156Z,91.33
2022-11-24T08:40:01.107Z,92.66
2022-11-24T08:41:01.107Z,91.44
2022-11-24T08:42:01.119Z,91.38
2022-11-24T08:43:01.078Z,90.97
2022-11-24T08:44:01.069Z,91.95
2022-11-24T08:45:17.524Z,91.17
2022-11-24T08:46:02.079Z,90.82
2022-11-24T08:47:01.054Z,90.36
2022-11-24T08:48:01.065Z,91.23
2022-11-24T08:49:01.027Z,90.82
2022-11-24T08:50:01.024Z,92.05
2022-11-24T08:51:01.001Z,92.83
2022-11-24T08:52:01.220Z,93.54
2022-11-24T08:53:00.991Z,93.74
2022-11-24T08:54:00.993Z,91.64
2022-11-24T08:55:00.963Z,90.82
2022-11-24T08:56:00.930Z,92.11
2022-11-24T08:57:00.940Z,92.62
2022-11-24T08:58:00.900Z,91.64
2022-11-24T08:59:00.978Z,92.11
2022-11-24T09:00:00.911Z,92.21
2022-11-24T09:01:00.899Z,92.37
2022-11-24T09:02:00.915Z,92.78
2022-11-24T09:03:00.882Z,93.96
2022-11-24T09:04:00.902Z,94.58
2022-11-24T09:05:00.821Z,92.84
2022-11-24T09:06:00.844Z,95.45
2022-11-24T09:07:00.804Z,93.76
2022-11-24T09:08:00.819Z,94.17
2022-11-24T09:09:00.852Z,93.51
2022-11-24T09:10:00.761Z,95.29
2022-11-24T09:11:00.766Z,94.17
2022-11-24T09:12:00.771Z,94.90
2022-11-24T09:13:00.742Z,94.02
2022-11-24T09:14:00.722Z,94.18
2022-11-24T09:15:00.725Z,96.69
2022-11-24T09:16:00.703Z,95.06
2022-11-24T09:17:00.715Z,96.69
2022-11-24T09:18:00.672Z,95.67
2022-11-24T09:19:00.653Z,95.45
2022-11-24T09:20:00.693Z,95.35
2022-11-24T09:21:00.664Z,95.61
2022-11-24T09:22:00.652Z,97.45
2022-11-24T09:23:00.657Z,94.84
2022-11-24T09:24:00.635Z,95.15
2022-11-24T09:25:00.596Z,96.79
2022-11-24T09:26:00.584Z,97.30
2022-11-24T09:27:00.576Z,96.02
2022-11-24T09:28:00.585Z,97.45
2022-11-24T09:29:00.545Z,96.33
2022-11-24T09:30:00.571Z,96.94
2022-11-24T09:31:00.632Z,96.22
2022-11-24T09:32:06.356Z,96.28
2022-11-24T09:33:01.655Z,98.11
2022-11-24T09:34:00.494Z,97.04
2022-11-24T09:35:00.534Z,97.66
2022-11-24T09:36:00.455Z,98.18
2022-11-24T09:37:00.462Z,97.14
2022-11-24T09:38:00.446Z,97.45
2022-11-24T09:39:00.440Z,97.45
2022-11-24T09:40:00.438Z,97.71
2022-11-24T09:41:00.439Z,98.11
2022-11-24T09:42:00.396Z,97.09
2022-11-24T09:43:00.404Z,97.71
2022-11-24T09:44:00.396Z,97.20
2022-11-24T09:45:00.404Z,98.02
2022-11-24T09:46:06.584Z,97.66
2022-11-24T09:47:01.479Z,97.31
2022-11-24T09:48:00.347Z,97.72
2022-11-24T09:49:00.326Z,98.13
2022-11-24T09:50:00.311Z,98.18
2022-11-24T09:51:00.288Z,98.18
2022-11-24T09:52:00.292Z,99.10
2022-11-24T09:53:00.358Z,99.30
2022-11-24T09:54:00.291Z,98.90
2022-11-24T09:55:00.246Z,98.44
2022-11-24T09:56:00.288Z,99.99
2022-11-24T09:57:00.218Z,99.71
2022-11-24T09:58:00.265Z,99.99
2022-11-24T09:59:00.198Z,99.99
2022-11-24T10:00:00.199Z,99.99
2022-11-24T10:01:00.320Z,99.99
2022-11-24T10:02:00.372Z,99.70
2022-11-24T10:03:00.229Z,99.91
2022-11-24T10:04:05.940Z,99.99
2022-11-24T10:05:01.206Z,99.91
2022-11-24T10:06:00.114Z,99.99
2022-11-24T10:07:00.121Z,99.91
2022-11-24T10:08:00.167Z,99.86
2022-11-24T10:09:00.161Z,99.76
2022-11-24T10:10:00.125Z,99.20
2022-11-24T10:11:00.062Z,99.56
2022-11-24T10:12:00.049Z,99.91
2022-11-24T10:13:00.046Z,99.61
2022-11-24T10:14:00.041Z,99.30
2022-11-24T10:15:00.032Z,99.66
2022-11-24T10:16:00.133Z,99.71
2022-11-24T10:17:00.003Z,99.61
2022-11-24T10:17:59.994Z,99.56
2022-11-24T10:18:59.981Z,99.41
2022-11-24T10:19:59.954Z,99.82
2022-11-24T10:20:59.932Z,99.61
2022-11-24T10:21:59.956Z,99.55
2022-11-24T10:22:59.925Z,99.76
2022-11-24T10:23:59.931Z,99.50
2022-11-24T10:24:59.901Z,99.85
2022-11-24T10:25:59.918Z,99.99
2022-11-24T10:26:59.873Z,99.99
2022-11-24T10:27:59.903Z,99.81
2022-11-24T10:28:59.864Z,99.86
2022-11-24T10:29:59.837Z,99.76
2022-11-24T10:30:59.875Z,99.99
2022-11-24T10:31:59.812Z,99.99
2022-11-24T10:32:59.825Z,99.80
2022-11-24T10:33:59.892Z,99.99
2022-11-24T10:34:59.787Z,99.80
2022-11-24T10:35:59.784Z,99.91
2022-11-24T10:36:59.764Z,99.66
2022-11-24T10:37:59.744Z,99.61
2022-11-24T10:38:59.757Z,99.51
2022-11-24T10:40:00.382Z,99.16
2022-11-24T10:40:59.820Z,98.79
2022-11-24T10:41:59.717Z,98.69
2022-11-24T10:42:59.713Z,99.00
2022-11-24T10:43:59.726Z,98.65
2022-11-24T10:44:59.695Z,98.08
2022-11-24T10:45:59.722Z,97.58
2022-11-24T10:46:59.695Z,97.58
2022-11-24T10:47:59.638Z,97.07
2022-11-24T10:48:59.616Z,98.44
2022-11-24T10:49:59.601Z,98.49
2022-11-24T10:50:59.627Z,98.64
2022-11-24T10:51:59.620Z,98.54
2022-11-24T10:52:59.617Z,98.50
2022-11-24T10:53:59.848Z,98.14
2022-11-24T10:54:59.550Z,97.93
2022-11-24T10:55:59.549Z,98.19
2022-11-24T10:56:59.549Z,97.33
2022-11-24T10:57:59.579Z,98.25
2022-11-24T10:58:59.512Z,97.94
2022-11-24T10:59:59.501Z,97.33
2022-11-24T11:00:59.934Z,97.13
2022-11-24T11:01:59.532Z,98.14
2022-11-24T11:02:59.562Z,97.32
2022-11-24T11:03:59.461Z,98.50
2022-11-24T11:04:59.654Z,98.25
2022-11-24T11:05:59.419Z,97.29
2022-11-24T11:06:59.439Z,97.29
2022-11-24T11:08:04.003Z,97.13
2022-11-24T11:09:00.445Z,96.98
2022-11-24T11:09:59.395Z,96.26
2022-11-24T11:10:59.371Z,97.07
2022-11-24T11:12:14.933Z,97.07
2022-11-24T11:13:00.373Z,97.02
2022-11-24T11:14:03.868Z,97.06
2022-11-24T11:15:00.349Z,97.63
2022-11-24T11:15:59.387Z,97.32
2022-11-24T11:16:59.306Z,97.58
2022-11-24T11:17:59.318Z,95.45
2022-11-24T11:18:59.632Z,96.61
2022-11-24T11:20:02.240Z,97.53
2022-11-24T11:20:59.283Z,97.02
2022-11-24T11:21:59.232Z,96.50
2022-11-24T11:22:59.213Z,96.51
2022-11-24T11:23:59.262Z,95.85
2022-11-24T11:24:59.193Z,93.41
2022-11-24T11:25:59.213Z,95.84
2022-11-24T11:26:59.186Z,96.36
2022-11-24T11:28:02.004Z,92.03
2022-11-24T11:31:15.141Z,95.39
2022-11-24T11:31:21.055Z,93.76
2022-11-24T11:34:03.303Z,90.46
2022-11-24T11:34:59.091Z,91.48
2022-11-24T11:35:59.095Z,89.14
2022-11-24T11:36:59.108Z,90.11
2022-11-24T11:37:59.109Z,88.34
2022-11-24T11:38:59.036Z,85.96
2022-11-24T11:39:59.066Z,86.68
2022-11-24T11:40:59.036Z,83.26
2022-11-24T11:41:59.000Z,82.34
2022-11-24T11:43:03.293Z,83.36
2022-11-24T11:43:58.987Z,85.19
2022-11-24T11:44:58.978Z,83.73
2022-11-24T11:45:59.103Z,84.88
2022-11-24T11:46:59.089Z,86.37
2022-11-24T11:47:58.943Z,85.19
2022-11-24T11:48:59.029Z,84.95
2022-11-24T11:49:58.915Z,81.79
2022-11-24T11:51:22.472Z,82.18
2022-11-24T11:52:00.020Z,85.15
2022-11-24T11:52:58.878Z,81.29
2022-11-24T11:53:59.654Z,79.50
2022-11-24T11:55:00.540Z,81.63
2022-11-24T11:55:59.747Z,80.69
2022-11-24T11:56:58.958Z,81.81
2022-11-24T11:57:58.939Z,82.35
2022-11-24T11:58:58.880Z,82.76
2022-11-24T11:59:59.351Z,81.48
2022-11-24T12:00:58.910Z,82.56
2022-11-24T12:01:58.897Z,84.19
2022-11-24T12:02:58.880Z,82.46
2022-11-24T12:03:58.809Z,83.37
2022-11-24T12:04:58.733Z,80.52
2022-11-24T12:05:58.720Z,79.30
2022-11-24T12:06:58.720Z,79.71
2022-11-24T12:07:59.750Z,79.88
2022-11-24T12:09:18.528Z,79.50
2022-11-24T12:09:59.700Z,81.51
2022-11-24T12:10:58.654Z,78.76
2022-11-24T12:11:58.681Z,79.37
2022-11-24T12:12:58.634Z,79.47
2022-11-24T12:13:58.652Z,79.13
2022-11-24T12:14:58.615Z,79.19
2022-11-24T12:15:58.677Z,77.83
2022-11-24T12:16:58.596Z,76.72
2022-11-24T12:17:58.631Z,77.06
2022-11-24T12:18:58.883Z,77.40
2022-11-24T12:19:58.555Z,78.52
2022-11-24T12:20:58.539Z,78.15
2022-11-24T12:21:58.531Z,78.05
2022-11-24T12:22:58.523Z,78.11
2022-11-24T12:23:58.548Z,76.95
2022-11-24T12:24:58.547Z,77.02
2022-11-24T12:25:58.472Z,77.73
2022-11-24T12:26:58.473Z,76.04
2022-11-24T12:27:58.486Z,77.06
2022-11-24T12:28:58.453Z,76.04
2022-11-24T12:29:58.466Z,76.34
2022-11-24T12:30:58.460Z,76.65
2022-11-24T12:31:58.457Z,75.12
2022-11-24T12:32:58.424Z,74.58
2022-11-24T12:34:01.330Z,74.24
2022-11-24T12:34:58.376Z,73.67
2022-11-24T12:35:58.411Z,74.75
2022-11-24T12:36:58.347Z,74.58
2022-11-24T12:37:58.344Z,74.04
2022-11-24T12:38:58.396Z,75.73
2022-11-24T12:39:58.344Z,72.62
2022-11-24T12:41:18.043Z,75.87
2022-11-24T12:41:59.344Z,75.73
2022-11-24T12:42:58.283Z,76.21
2022-11-24T12:43:58.277Z,73.77
2022-11-24T12:44:58.293Z,75.53
2022-11-24T12:45:58.365Z,75.12
2022-11-24T12:46:58.288Z,74.35
2022-11-24T12:47:58.417Z,75.16
2022-11-24T12:48:58.358Z,76.34
2022-11-24T12:49:58.206Z,75.63
2022-11-24T12:50:58.201Z,76.86
2022-11-24T12:51:58.258Z,74.65
2022-11-24T12:52:59.039Z,76.89
2022-11-24T12:53:58.167Z,76.28
2022-11-24T12:54:58.159Z,75.30